Aérodrome :
LOGIN :

S'inscrire | Disclaimer

   EN    FR    IT 

 










Légende :    VFR   VFR Marginal   IFR   IFR Intensif   IFR Très Intensif
Visi : 
Plafond : 
>= 8 km
>= 3000ft
5 à 8 km
1000 à 3000 ft
1500m à 5 km
500 à 1000 ft
800 à 1500m
200 à 500 ft
< 800m
< 200 ft
Symboles :   Orages  Brouillard  Fortes neiges  Fortes précipitations  Vent > 20 kt
SIGMETs :   Divers  Orages  Givrage  Turbulence  Onde Orograph.  Cendres Volcan.






- Altitude de l'aérodrome : 584 ft


LFPV - Villacoublay Vélizy

DERNIER METAR :
  • 141130Z AUTO 22010KT 170V260 9999 FEW011 OVC049 18/11 Q1008 TEMPO 23015G30KT 4000 -SHRA BKN040TCU

METARs EXPIRÉS :
  • 141100Z AUTO 23011KT 9999 BKN027 BKN033 OVC044 16/11 Q1008 TEMPO 23015G30KT 4000 -SHRA BKN040TCU
  • 141030Z AUTO 24010KT 200V260 9999 BKN021 BKN027 OVC042 17/11 Q1008 TEMPO 23015G30KT 4000 -SHRA BKN040TCU
  • 141000Z AUTO 24010KT 200V260 9999 BKN021 OVC027 16/12 Q1008 TEMPO 23015G30KT 4000 -SHRA BKN040TCU
  • 140930Z AUTO 23010KT 200V260 9999 BKN023 BKN029 OVC038 17/11 Q1008 TEMPO 23015G30KT 4000 -SHRA BKN040TCU
  • 140900Z AUTO 24009KT 190V270 9999 SCT018 BKN024 BKN033 17/12 Q1008 TEMPO BKN010 BKN015
  • 140830Z AUTO 24012KT 9999 BKN013 OVC039 16/13 Q1008 NOSIG
  • 140800Z AUTO 23010KT 190V260 9999 BKN009 OVC014 15/13 Q1008 TEMPO 2000 -RADZ BECMG OVC039
  • 140730Z AUTO 21008KT 170V260 9999 -DZ OVC007 14/13 Q1008 TEMPO 2000 -RADZ BECMG OVC039
  • 140700Z AUTO 21007KT 170V250 9999 BKN008 OVC016 14/13 Q1008 TEMPO 2000 -RADZ BKN004
  • 140630Z AUTO 22008KT 190V250 9999 OVC005 13/12 Q1008 TEMPO 2000 -RADZ

TAF TAF LFPV
Valide du 14 à 09h jusqu'au 15 à 09h UTC


140800Z 1409/1509 19004KT 9999 BKN030 TX20/1415Z TN10/1504Z
TEMPO 1409/1411 -RADZ BKN010 BKN015
TEMPO 1411/1501 23015G30KT 4000 -SHRA BKN040TCU
PROB30
TEMPO 1415/1419 2500 -TSRA BKN030CB



MET'MAP, la Météo Aéronautique d'un coup d'oeil ! - Copyright ORBIFLY Décembre 2007 - Disclaimer

ORBIFLY MET'MAP TEAM :

Programmation & Développement : Alexandra Zaïnal
Sur une idée originale de : Baudouin d'Aumeries
Soutien technique & logistique : Manuel Goepfert
Assistance : Marc-Olivier Méhu




SOURCES & CREDITS :

   NOAA